Time;durP1;ratioP1;P1;durP2;ratioP2;P2;SDS_P1;SDS_P2;PMS_P1;PMS_P2;Temp;Humidity;BMP_temperature;BMP_pressure;BME280_temperature;BME280_humidity;BME280_pressure;Samples;Min_cycle;Max_cycle;Signal;HPM_P1;HPM_P2
2022/12/21 00:01:12;;;;;;;12.88;12.07;;;7.90;99.90;;;;;;4266075;27;20084;-86
2022/12/21 00:03:32;;;;;;;11.68;10.77;;;7.90;99.90;;;;;;4262855;27;20055;-86
2022/12/21 00:05:56;;;;;;;11.45;10.93;;;8.00;99.90;;;;;;4265800;27;20054;-86
2022/12/21 00:08:16;;;;;;;11.05;10.25;;;8.00;99.90;;;;;;4265707;27;20038;-86
2022/12/21 00:10:36;;;;;;;14.73;13.55;;;8.00;99.90;;;;;;4267772;27;20102;-86
2022/12/21 00:12:56;;;;;;;10.10;9.60;;;7.90;99.90;;;;;;4265818;27;20062;-86
2022/12/21 00:15:16;;;;;;;18.10;16.45;;;8.00;99.90;;;;;;4258660;27;20050;-86
2022/12/21 00:17:36;;;;;;;12.68;11.80;;;8.00;99.90;;;;;;4257994;27;20092;-86
2022/12/21 00:20:03;;;;;;;25.05;22.45;;;7.80;99.90;;;;;;4255616;27;20096;-86
2022/12/21 00:22:24;;;;;;;34.75;30.90;;;7.80;99.90;;;;;;4250167;27;20038;-86
2022/12/21 00:24:43;;;;;;;27.65;25.05;;;7.50;99.90;;;;;;4270056;27;20119;-86
2022/12/21 00:27:03;;;;;;;21.20;19.27;;;7.40;99.90;;;;;;4267666;27;20042;-86
2022/12/21 00:29:23;;;;;;;24.17;21.92;;;7.40;99.90;;;;;;4267283;27;20053;-86
2022/12/21 00:31:44;;;;;;;19.70;18.10;;;7.50;99.90;;;;;;4252176;27;20046;-86
2022/12/21 00:34:06;;;;;;;19.60;17.85;;;7.60;99.90;;;;;;4262579;27;20083;-86
2022/12/21 00:36:27;;;;;;;17.38;15.85;;;7.50;99.90;;;;;;4249343;27;20242;-87
2022/12/21 00:38:47;;;;;;;16.95;15.65;;;7.60;99.90;;;;;;4257067;27;20039;-86
2022/12/21 00:41:10;;;;;;;15.13;13.77;;;7.70;99.90;;;;;;4263590;27;20089;-87
2022/12/21 00:43:32;;;;;;;15.23;14.13;;;7.80;99.90;;;;;;4249990;27;20073;-87
2022/12/21 00:45:52;;;;;;;16.92;15.48;;;7.80;99.90;;;;;;4253336;27;20119;-86
2022/12/21 00:48:12;;;;;;;20.38;18.65;;;7.80;99.90;;;;;;4254434;27;20061;-86
2022/12/21 00:50:33;;;;;;;21.50;19.35;;;7.80;99.90;;;;;;4266902;27;20395;-86
2022/12/21 00:52:54;;;;;;;27.92;25.33;;;7.80;99.90;;;;;;4262102;27;20069;-86
2022/12/21 00:55:13;;;;;;;26.73;23.95;;;7.70;99.90;;;;;;4249737;27;20396;-86
2022/12/21 00:57:33;;;;;;;26.42;23.70;;;7.50;99.90;;;;;;4245295;27;20042;-86
2022/12/21 00:59:53;;;;;;;25.75;22.83;;;7.50;99.90;;;;;;4255911;27;20046;-86
2022/12/21 01:02:13;;;;;;;29.10;25.70;;;7.40;99.90;;;;;;4263667;27;20261;-86
2022/12/21 01:04:33;;;;;;;28.92;26.13;;;7.40;99.90;;;;;;4253550;27;20054;-86
2022/12/21 01:06:53;;;;;;;29.02;26.20;;;7.40;99.90;;;;;;4259380;27;20095;-86
2022/12/21 01:09:13;;;;;;;20.50;18.85;;;7.30;99.90;;;;;;4261663;27;20364;-86
2022/12/21 01:11:33;;;;;;;17.92;16.48;;;7.40;99.90;;;;;;4261411;27;20054;-86
2022/12/21 01:13:54;;;;;;;25.48;22.20;;;7.60;99.90;;;;;;4264606;27;20054;-86
2022/12/21 01:16:22;;;;;;;27.05;23.83;;;7.60;99.90;;;;;;4265166;27;20107;-86
2022/12/21 01:18:43;;;;;;;13.35;12.55;;;7.60;99.90;;;;;;4260737;27;20073;-87
2022/12/21 01:21:03;;;;;;;14.55;13.75;;;7.80;99.90;;;;;;4262341;27;20076;-86
2022/12/21 01:23:24;;;;;;;15.07;14.07;;;7.80;99.90;;;;;;4256911;27;20102;-86
2022/12/21 01:25:45;;;;;;;17.13;15.20;;;7.80;99.90;;;;;;4270238;27;20316;-86
2022/12/21 01:28:05;;;;;;;16.10;15.25;;;7.80;99.90;;;;;;4253291;27;20069;-86
2022/12/21 01:30:25;;;;;;;17.38;16.17;;;7.80;99.90;;;;;;4261314;27;20102;-86
2022/12/21 01:32:45;;;;;;;16.75;15.45;;;7.80;99.90;;;;;;4257728;27;20105;-86
2022/12/21 01:35:07;;;;;;;19.27;17.70;;;7.80;99.90;;;;;;4255031;27;20056;-86
2022/12/21 01:37:27;;;;;;;17.50;16.10;;;7.80;99.90;;;;;;4259640;27;20046;-86
2022/12/21 01:39:46;;;;;;;18.92;17.30;;;7.80;99.90;;;;;;4265233;27;20074;-86
2022/12/21 01:42:11;;;;;;;18.85;17.67;;;7.80;99.90;;;;;;4262412;27;20043;-86
2022/12/21 01:45:00;;;;;;;17.65;16.48;;;7.80;99.90;;;;;;4262821;27;20400;-86
2022/12/21 01:47:30;;;;;;;19.73;18.05;;;7.80;99.90;;;;;;4266489;27;20045;-86
2022/12/21 01:50:04;;;;;;;18.02;16.73;;;7.70;99.90;;;;;;4248094;27;20050;-86
2022/12/21 01:52:24;;;;;;;17.70;16.35;;;7.70;99.90;;;;;;4255987;27;20065;-86
2022/12/21 01:54:49;;;;;;;20.20;18.73;;;7.70;99.90;;;;;;4246363;27;20047;-86
2022/12/21 01:57:17;;;;;;;18.38;17.17;;;7.70;99.90;;;;;;4256850;27;20139;-86
2022/12/21 01:59:50;;;;;;;17.58;16.50;;;7.70;99.90;;;;;;4249904;27;20246;-86
2022/12/21 02:02:16;;;;;;;16.77;15.63;;;7.70;99.90;;;;;;4261538;27;20034;-87
2022/12/21 02:04:36;;;;;;;18.75;17.20;;;7.70;99.90;;;;;;4247283;27;20143;-87
2022/12/21 02:06:58;;;;;;;16.77;15.68;;;7.70;99.90;;;;;;4244220;27;20046;-87
2022/12/21 02:09:19;;;;;;;17.98;16.80;;;7.70;99.90;;;;;;4262681;27;20383;-87
2022/12/21 02:11:40;;;;;;;19.20;17.63;;;7.60;99.90;;;;;;4243586;27;20050;-86
2022/12/21 02:14:00;;;;;;;17.25;16.10;;;7.70;99.90;;;;;;4258170;27;20050;-86
2022/12/21 02:16:49;;;;;;;16.73;15.80;;;7.70;99.90;;;;;;4265323;27;20054;-86
2022/12/21 02:19:09;;;;;;;19.13;17.38;;;7.70;99.90;;;;;;4263735;27;20075;-86
2022/12/21 02:21:49;;;;;;;18.52;17.27;;;7.60;99.90;;;;;;4265843;27;20042;-86
2022/12/21 02:24:31;;;;;;;19.80;18.00;;;7.60;99.90;;;;;;4244168;27;20038;-86
2022/12/21 02:27:23;;;;;;;18.73;17.13;;;7.60;99.90;;;;;;4260977;27;20034;-86
2022/12/21 02:30:04;;;;;;;19.58;17.90;;;7.60;99.90;;;;;;4171309;28;20260;-86
2022/12/21 02:32:33;;;;;;;19.73;18.05;;;7.60;99.90;;;;;;4170551;28;20296;-86
2022/12/21 02:35:20;;;;;;;19.52;17.90;;;7.60;99.90;;;;;;4176560;28;20167;-86
2022/12/21 02:38:00;;;;;;;20.77;18.33;;;7.60;99.90;;;;;;4162971;28;20196;-86
2022/12/21 02:40:30;;;;;;;20.73;18.92;;;7.60;99.90;;;;;;4169333;28;20206;-87
2022/12/21 02:45:50;;;;;;;20.38;18.52;;;7.60;99.90;;;;;;4171037;28;20229;-86
2022/12/21 02:48:19;;;;;;;21.17;19.67;;;7.50;99.90;;;;;;4173711;28;20037;-87
2022/12/21 02:50:44;;;;;;;20.33;18.75;;;7.50;99.90;;;;;;4171493;28;20068;-87
2022/12/21 02:53:12;;;;;;;21.67;19.77;;;7.50;99.90;;;;;;4175151;28;20080;-87
2022/12/21 02:55:32;;;;;;;21.17;19.20;;;7.50;99.90;;;;;;4174083;28;20067;-87
2022/12/21 02:58:15;;;;;;;22.02;20.17;;;7.50;99.90;;;;;;4170580;28;20103;-87
2022/12/21 03:01:11;;;;;;;21.50;19.42;;;7.50;99.90;;;;;;4159538;28;20041;-87
2022/12/21 03:03:49;;;;;;;19.92;18.33;;;7.50;99.90;;;;;;4190994;28;20043;-86
2022/12/21 03:06:31;;;;;;;21.38;19.73;;;7.50;99.90;;;;;;4239458;27;20048;-86
2022/12/21 03:09:19;;;;;;;20.52;18.98;;;7.50;99.90;;;;;;4256578;27;20066;-86
2022/12/21 03:11:57;;;;;;;21.02;19.50;;;7.50;99.90;;;;;;4264254;27;20422;-86
2022/12/21 03:14:39;;;;;;;21.48;19.35;;;7.40;99.90;;;;;;4251220;27;20433;-86
2022/12/21 03:17:35;;;;;;;21.05;19.15;;;7.50;99.90;;;;;;4258919;27;20384;-86
2022/12/21 03:20:06;;;;;;;22.48;20.55;;;7.50;99.90;;;;;;4250545;27;20287;-86
2022/12/21 03:23:27;;;;;;;23.88;21.40;;;7.50;99.90;;;;;;4262649;27;20398;-87
2022/12/21 03:26:21;;;;;;;21.02;19.20;;;7.40;99.90;;;;;;4201249;28;20406;-86
2022/12/21 03:28:45;;;;;;;21.33;19.83;;;7.40;99.90;;;;;;4196548;28;20063;-86
2022/12/21 03:31:11;;;;;;;19.95;18.05;;;7.40;99.90;;;;;;4197497;28;20071;-87
2022/12/21 03:33:38;;;;;;;20.45;18.52;;;7.40;99.90;;;;;;4199087;28;20048;-87
2022/12/21 03:36:22;;;;;;;21.75;20.15;;;7.40;99.90;;;;;;4190977;28;20048;-87
2022/12/21 03:38:55;;;;;;;21.88;20.23;;;7.30;99.90;;;;;;4203953;28;20278;-87
2022/12/21 03:41:21;;;;;;;22.70;20.97;;;7.30;99.90;;;;;;4184615;28;20044;-87
2022/12/21 03:43:42;;;;;;;23.13;21.08;;;7.30;99.90;;;;;;4205176;28;20052;-86
2022/12/21 03:46:11;;;;;;;24.60;22.50;;;7.20;99.90;;;;;;4180537;28;20132;-86
2022/12/21 03:48:55;;;;;;;22.05;20.38;;;7.20;99.90;;;;;;4200159;28;20051;-86
2022/12/21 03:51:23;;;;;;;23.13;20.83;;;7.20;99.90;;;;;;4198079;28;20260;-87
2022/12/21 03:53:49;;;;;;;24.67;22.58;;;7.20;99.90;;;;;;4197937;28;20152;-87
2022/12/21 03:56:15;;;;;;;24.73;22.75;;;7.20;99.90;;;;;;4197947;28;20445;-87
2022/12/21 03:58:36;;;;;;;25.77;23.30;;;7.10;99.90;;;;;;4198770;28;20075;-87
2022/12/21 04:01:04;;;;;;;23.90;22.05;;;7.10;99.90;;;;;;4263546;27;20041;-87
2022/12/21 04:03:29;;;;;;;24.63;22.30;;;7.10;99.90;;;;;;4251371;27;20426;-87
2022/12/21 04:05:52;;;;;;;23.85;21.77;;;7.00;99.90;;;;;;4251230;27;20088;-86
2022/12/21 04:08:12;;;;;;;21.98;20.38;;;7.00;99.90;;;;;;4265844;27;20566;-87
2022/12/21 04:10:32;;;;;;;24.55;22.02;;;7.00;99.90;;;;;;4247454;27;20058;-86
2022/12/21 04:12:52;;;;;;;22.02;20.33;;;7.00;99.90;;;;;;4266410;27;20050;-87
2022/12/21 04:15:24;;;;;;;22.73;21.02;;;7.00;99.90;;;;;;4271415;27;20053;-86
2022/12/21 04:17:47;;;;;;;21.98;20.38;;;6.90;99.90;;;;;;4252762;28;20084;-86
2022/12/21 04:20:12;;;;;;;25.02;22.92;;;6.90;99.90;;;;;;4252137;27;20119;-86
2022/12/21 04:28:09;;;;;;;23.17;21.38;;;7.00;99.90;;;;;;4264543;27;20286;-87
2022/12/21 04:30:49;;;;;;;22.67;20.83;;;7.00;99.90;;;;;;4255426;27;20400;-87
2022/12/21 04:33:12;;;;;;;23.13;21.10;;;7.00;99.90;;;;;;4265225;27;20060;-87
2022/12/21 04:35:33;;;;;;;20.90;19.27;;;7.00;99.90;;;;;;4248881;27;20081;-86
2022/12/21 04:37:53;;;;;;;20.98;19.30;;;7.00;99.90;;;;;;4266054;27;20238;-86
2022/12/21 04:40:13;;;;;;;20.65;19.10;;;7.00;99.90;;;;;;4256767;27;20065;-86
2022/12/21 04:42:32;;;;;;;20.23;18.83;;;7.00;99.90;;;;;;4264997;27;20038;-86
2022/12/21 04:44:52;;;;;;;19.70;18.20;;;7.00;99.90;;;;;;4265723;27;20399;-86
2022/12/21 04:47:12;;;;;;;20.27;19.05;;;7.00;99.90;;;;;;4256286;27;20423;-86
2022/12/21 04:49:31;;;;;;;20.25;18.95;;;7.00;99.90;;;;;;4262837;27;20058;-87
2022/12/21 04:51:58;;;;;;;20.95;19.42;;;7.00;99.90;;;;;;4251502;27;20041;-87
2022/12/21 04:54:18;;;;;;;21.58;19.90;;;7.00;99.90;;;;;;4266163;27;20075;-87
2022/12/21 04:56:38;;;;;;;21.60;19.95;;;7.00;99.90;;;;;;4260716;27;20056;-87
2022/12/21 04:58:58;;;;;;;22.73;20.95;;;7.00;99.90;;;;;;4264524;27;20033;-86
2022/12/21 05:01:20;;;;;;;23.75;22.02;;;6.90;99.90;;;;;;4256411;27;20042;-86
2022/12/21 05:03:41;;;;;;;19.00;17.70;;;6.90;99.90;;;;;;4259984;27;20071;-86
2022/12/21 05:06:01;;;;;;;19.23;17.83;;;6.90;99.90;;;;;;4257093;27;20242;-86
2022/12/21 05:08:21;;;;;;;20.00;18.48;;;6.90;99.90;;;;;;4252881;27;20058;-86
2022/12/21 05:10:42;;;;;;;22.13;20.23;;;6.90;99.90;;;;;;4254131;27;20048;-86
2022/12/21 05:13:02;;;;;;;20.08;18.50;;;6.90;99.90;;;;;;4268540;27;20049;-87
2022/12/21 05:15:22;;;;;;;18.77;17.33;;;7.00;99.90;;;;;;4251015;27;20042;-86
2022/12/21 05:17:42;;;;;;;20.85;19.05;;;6.90;99.90;;;;;;4264629;27;20297;-86
2022/12/21 05:20:03;;;;;;;19.83;18.25;;;6.90;99.90;;;;;;4268331;27;20073;-86
2022/12/21 05:22:23;;;;;;;21.15;19.13;;;7.00;99.90;;;;;;4259125;27;20050;-87
2022/12/21 05:24:44;;;;;;;21.42;19.67;;;7.00;99.90;;;;;;4247582;27;20096;-86
2022/12/21 05:27:04;;;;;;;20.77;18.95;;;7.00;99.90;;;;;;4254732;27;20058;-86
2022/12/21 05:29:23;;;;;;;19.05;17.60;;;7.00;99.90;;;;;;4253614;27;20369;-86
2022/12/21 05:31:43;;;;;;;19.55;17.77;;;7.00;99.90;;;;;;4262414;27;20368;-86
2022/12/21 05:34:03;;;;;;;18.85;17.35;;;7.00;99.90;;;;;;4261659;27;20122;-86
2022/12/21 05:36:24;;;;;;;18.10;16.63;;;7.00;99.90;;;;;;4252912;27;20078;-86
2022/12/21 05:38:44;;;;;;;18.73;16.90;;;7.00;99.90;;;;;;4252087;27;20100;-86
2022/12/21 05:41:04;;;;;;;17.50;16.20;;;7.00;99.90;;;;;;4252323;27;20101;-86
2022/12/21 05:43:24;;;;;;;20.40;18.88;;;7.00;99.90;;;;;;4268371;27;20373;-86
2022/12/21 05:45:45;;;;;;;20.80;19.05;;;7.00;99.90;;;;;;4247135;27;20098;-86
2022/12/21 05:48:05;;;;;;;19.73;17.95;;;7.00;99.90;;;;;;4257285;27;20072;-86
2022/12/21 05:50:24;;;;;;;18.42;16.85;;;7.00;99.90;;;;;;4263828;27;20091;-86
2022/12/21 05:52:44;;;;;;;17.85;16.30;;;7.00;99.90;;;;;;4261153;27;20197;-86
2022/12/21 05:55:05;;;;;;;16.55;15.55;;;7.00;99.90;;;;;;4245674;27;20050;-86
2022/12/21 05:57:25;;;;;;;16.95;15.68;;;7.00;99.90;;;;;;4249668;27;20038;-86
2022/12/21 05:59:44;;;;;;;16.33;15.13;;;7.00;99.90;;;;;;4266783;27;20284;-86
2022/12/21 06:02:04;;;;;;;17.08;15.98;;;7.10;99.90;;;;;;4259243;27;20050;-86
2022/12/21 06:04:25;;;;;;;16.00;15.10;;;7.00;99.90;;;;;;4261774;27;20045;-87
2022/12/21 06:06:46;;;;;;;15.43;14.18;;;7.00;99.90;;;;;;4260112;27;20053;-87
2022/12/21 06:09:06;;;;;;;17.65;16.25;;;7.00;99.90;;;;;;4262862;27;20352;-87
2022/12/21 06:11:27;;;;;;;16.65;15.50;;;7.00;99.90;;;;;;4266172;27;20102;-87
2022/12/21 06:13:47;;;;;;;16.95;15.82;;;7.10;99.90;;;;;;4253181;27;20094;-87
2022/12/21 06:16:23;;;;;;;17.02;15.88;;;7.00;99.90;;;;;;4265238;27;20246;-86
2022/12/21 06:18:44;;;;;;;20.35;18.92;;;7.00;99.90;;;;;;4256157;27;20050;-86
2022/12/21 06:21:05;;;;;;;15.55;14.75;;;7.00;99.90;;;;;;4262369;27;20050;-87
2022/12/21 06:23:25;;;;;;;17.10;16.00;;;7.00;99.90;;;;;;4264363;27;20045;-88
2022/12/21 06:25:45;;;;;;;16.02;14.90;;;7.00;99.90;;;;;;4250739;27;20039;-88
2022/12/21 06:28:04;;;;;;;16.67;15.57;;;7.10;99.90;;;;;;4260782;27;20096;-88
2022/12/21 06:30:24;;;;;;;14.93;14.00;;;7.10;99.90;;;;;;4250344;27;20058;-88
2022/12/21 06:32:44;;;;;;;17.70;16.63;;;7.10;99.90;;;;;;4254317;27;20046;-88
2022/12/21 06:35:05;;;;;;;17.63;16.13;;;7.10;99.90;;;;;;4255760;27;20051;-88
2022/12/21 06:37:25;;;;;;;15.85;14.85;;;7.10;99.90;;;;;;4267606;27;20074;-88
2022/12/21 06:39:45;;;;;;;17.80;16.45;;;7.10;99.90;;;;;;4259668;27;20060;-88
2022/12/21 06:42:05;;;;;;;16.38;15.40;;;7.10;99.90;;;;;;4266964;27;20101;-88
2022/12/21 06:44:25;;;;;;;15.38;14.57;;;7.10;99.90;;;;;;4272147;27;20083;-88
2022/12/21 06:47:08;;;;;;;17.80;16.08;;;7.10;99.90;;;;;;4251637;27;20137;-88
2022/12/21 06:49:28;;;;;;;15.77;14.43;;;7.10;99.90;;;;;;4183934;28;20063;-85
2022/12/21 06:51:49;;;;;;;15.90;14.80;;;7.10;99.90;;;;;;4197669;28;20082;-85
2022/12/21 06:54:10;;;;;;;15.80;14.70;;;7.10;99.90;;;;;;4198388;28;20041;-85
2022/12/21 06:56:31;;;;;;;16.88;15.55;;;7.10;99.90;;;;;;4196579;28;20032;-85
2022/12/21 06:58:54;;;;;;;16.25;14.95;;;7.10;99.90;;;;;;4178264;28;20060;-85
2022/12/21 07:01:17;;;;;;;15.70;14.50;;;7.10;99.90;;;;;;4191266;28;20091;-85
2022/12/21 07:03:39;;;;;;;16.33;14.90;;;7.10;99.90;;;;;;4183079;28;20043;-85
2022/12/21 07:06:04;;;;;;;17.27;16.00;;;7.10;99.90;;;;;;4186086;28;20044;-85
2022/12/21 07:08:24;;;;;;;21.02;19.23;;;7.20;99.90;;;;;;4186068;28;20513;-86
2022/12/21 07:10:43;;;;;;;20.15;18.25;;;7.10;99.90;;;;;;4187897;28;20056;-86
2022/12/21 07:13:04;;;;;;;19.02;17.77;;;7.10;99.90;;;;;;4186258;28;20068;-86
2022/12/21 07:15:24;;;;;;;16.95;15.73;;;7.10;99.90;;;;;;4185570;28;20096;-85
2022/12/21 07:17:44;;;;;;;18.23;16.63;;;7.10;99.90;;;;;;4168807;28;20083;-85
2022/12/21 07:20:05;;;;;;;17.23;15.93;;;7.20;99.90;;;;;;4184204;28;20072;-85
2022/12/21 07:22:26;;;;;;;18.80;17.20;;;7.20;99.90;;;;;;4172694;28;20248;-85
2022/12/21 07:24:45;;;;;;;19.38;17.58;;;7.20;99.90;;;;;;4180871;28;20309;-85
2022/12/21 07:27:05;;;;;;;26.85;24.27;;;7.20;99.90;;;;;;4251954;27;20083;-85
2022/12/21 07:29:25;;;;;;;23.05;21.25;;;7.10;99.90;;;;;;4258072;27;20237;-85
2022/12/21 07:31:45;;;;;;;22.13;20.23;;;7.10;99.90;;;;;;4263445;27;20298;-85
2022/12/21 07:34:05;;;;;;;20.38;18.77;;;7.10;99.90;;;;;;4256560;27;20061;-85
2022/12/21 07:36:25;;;;;;;20.23;18.45;;;7.10;99.90;;;;;;4257562;27;20058;-85
2022/12/21 07:38:46;;;;;;;20.25;18.80;;;7.10;99.90;;;;;;4255995;27;20066;-85
2022/12/21 07:41:09;;;;;;;22.23;20.20;;;7.20;99.90;;;;;;4258067;27;20075;-85
2022/12/21 07:43:30;;;;;;;22.55;20.50;;;7.20;99.90;;;;;;4247545;27;20104;-85
2022/12/21 07:45:50;;;;;;;23.70;21.60;;;7.20;99.90;;;;;;4251404;27;20041;-85
2022/12/21 07:48:10;;;;;;;23.77;21.63;;;7.20;99.90;;;;;;4265656;27;20068;-85
2022/12/21 07:50:31;;;;;;;22.08;20.08;;;7.20;99.90;;;;;;4256561;27;20046;-85
2022/12/21 07:52:51;;;;;;;20.95;19.40;;;7.10;99.90;;;;;;4263920;27;20046;-85
2022/12/21 07:55:11;;;;;;;20.20;18.38;;;7.10;99.90;;;;;;4256039;27;20042;-85
2022/12/21 07:57:31;;;;;;;20.50;19.00;;;7.10;99.90;;;;;;4251416;27;20046;-85
2022/12/21 07:59:50;;;;;;;20.88;18.98;;;7.20;99.90;;;;;;4256479;27;20249;-85
2022/12/21 08:02:10;;;;;;;26.25;23.80;;;7.20;99.90;;;;;;4267206;27;20111;-85
2022/12/21 08:04:30;;;;;;;18.17;16.58;;;7.20;99.90;;;;;;4264664;27;20284;-85
2022/12/21 08:06:53;;;;;;;19.25;17.70;;;7.30;99.90;;;;;;4265668;27;20076;-85
2022/12/21 08:09:13;;;;;;;15.15;13.98;;;7.30;99.90;;;;;;4264145;27;20046;-85
2022/12/21 08:11:33;;;;;;;16.27;15.15;;;7.30;99.90;;;;;;4257149;27;20100;-85
2022/12/21 08:13:52;;;;;;;15.07;14.05;;;7.30;99.90;;;;;;4257774;27;20423;-85
2022/12/21 08:16:16;;;;;;;15.63;14.48;;;7.40;99.90;;;;;;4257580;27;20148;-85
2022/12/21 08:18:37;;;;;;;14.23;13.20;;;7.40;99.90;;;;;;4248565;27;20366;-85
2022/12/21 08:20:59;;;;;;;14.63;13.73;;;7.40;99.90;;;;;;4256703;27;20057;-85
2022/12/21 08:23:19;;;;;;;15.00;14.02;;;7.40;99.90;;;;;;4263613;27;20064;-85
2022/12/21 08:25:42;;;;;;;16.27;14.73;;;7.40;99.90;;;;;;4264928;27;20091;-85
2022/12/21 08:28:01;;;;;;;14.73;13.82;;;7.40;99.90;;;;;;4261993;27;20076;-85
2022/12/21 08:30:21;;;;;;;14.32;13.13;;;7.50;99.90;;;;;;4249344;27;20065;-85
2022/12/21 08:32:41;;;;;;;13.88;12.73;;;7.50;99.90;;;;;;4266453;27;20072;-85
2022/12/21 08:35:01;;;;;;;15.27;13.75;;;7.50;99.90;;;;;;4249843;27;20254;-85
2022/12/21 08:37:21;;;;;;;14.15;13.18;;;7.60;99.90;;;;;;4253253;27;20046;-85
2022/12/21 08:39:41;;;;;;;14.57;13.52;;;7.60;99.90;;;;;;4258812;27;20089;-86
2022/12/21 08:42:02;;;;;;;14.63;13.63;;;7.60;99.90;;;;;;4257777;27;20050;-86
2022/12/21 08:44:22;;;;;;;14.88;13.55;;;7.60;99.90;;;;;;4263629;27;20042;-85
2022/12/21 08:46:42;;;;;;;15.77;14.80;;;7.60;99.90;;;;;;4245308;27;20074;-85
2022/12/21 08:49:02;;;;;;;14.68;13.70;;;7.60;99.90;;;;;;4261941;27;20077;-86
2022/12/21 08:51:22;;;;;;;13.35;12.43;;;7.70;99.90;;;;;;4258209;27;20081;-85
2022/12/21 08:53:43;;;;;;;12.32;11.63;;;7.70;99.90;;;;;;4256011;27;20054;-85
2022/12/21 08:56:10;;;;;;;15.02;14.15;;;7.80;99.90;;;;;;4259000;27;20067;-85
2022/12/21 08:58:31;;;;;;;17.75;16.25;;;7.80;99.90;;;;;;4264464;27;20049;-85
2022/12/21 09:00:54;;;;;;;15.20;14.20;;;7.80;99.90;;;;;;4266876;27;20058;-85
2022/12/21 09:03:14;;;;;;;;;;;7.80;99.90;;;;;;4262804;27;20042;-86
2022/12/21 09:05:34;;;;;;;13.75;12.68;;;7.80;99.90;;;;;;4258895;27;19938;-86
2022/12/21 09:07:54;;;;;;;15.32;14.13;;;7.80;99.90;;;;;;4248729;27;20080;-86
2022/12/21 09:10:13;;;;;;;13.95;12.93;;;7.90;99.90;;;;;;4251836;27;20041;-85
2022/12/21 09:12:33;;;;;;;14.30;13.45;;;7.90;99.90;;;;;;4264227;27;20061;-86
2022/12/21 09:14:53;;;;;;;12.13;11.38;;;7.90;99.90;;;;;;4250503;27;20385;-85
2022/12/21 09:17:13;;;;;;;19.77;18.20;;;7.90;99.90;;;;;;4259919;27;20157;-85
2022/12/21 09:19:33;;;;;;;12.95;11.93;;;8.00;99.90;;;;;;4254404;27;20138;-85
2022/12/21 09:21:53;;;;;;;14.77;13.48;;;8.00;99.90;;;;;;4266669;27;20073;-85
2022/12/21 09:24:13;;;;;;;14.10;13.13;;;8.00;99.90;;;;;;4249541;27;20107;-85
2022/12/21 09:26:33;;;;;;;12.48;11.65;;;8.00;99.90;;;;;;4253403;27;20050;-85
2022/12/21 09:28:54;;;;;;;15.45;14.55;;;8.10;99.90;;;;;;4248838;27;20050;-86
2022/12/21 09:31:19;;;;;;;12.60;12.10;;;8.10;99.90;;;;;;4251553;27;20262;-86
2022/12/21 09:33:44;;;;;;;13.63;12.82;;;8.10;99.90;;;;;;4256385;27;20061;-86
2022/12/21 09:36:05;;;;;;;14.85;13.85;;;8.20;99.90;;;;;;4262693;27;20365;-86
2022/12/21 09:38:25;;;;;;;11.35;10.65;;;8.30;99.90;;;;;;4264469;27;20042;-86
2022/12/21 09:40:45;;;;;;;12.23;11.63;;;8.30;99.90;;;;;;4260113;27;20070;-85
2022/12/21 09:43:31;;;;;;;13.88;12.98;;;8.20;99.90;;;;;;4256132;27;20064;-86
2022/12/21 09:45:59;;;;;;;11.73;10.98;;;8.20;99.90;;;;;;4262228;27;20092;-85
2022/12/21 09:48:24;;;;;;;9.48;9.02;;;8.20;99.90;;;;;;4255056;27;20042;-85
2022/12/21 09:51:28;;;;;;;11.25;10.55;;;8.20;99.90;;;;;;4249970;27;20053;-86
2022/12/21 09:54:06;;;;;;;11.27;10.48;;;8.20;99.90;;;;;;4263574;27;20049;-86
2022/12/21 09:56:28;;;;;;;10.82;10.32;;;8.30;99.90;;;;;;4245560;27;20078;-85
2022/12/21 09:58:49;;;;;;;12.60;11.70;;;8.30;99.90;;;;;;4248608;27;20050;-85
2022/12/21 10:01:17;;;;;;;12.55;11.88;;;8.30;99.90;;;;;;4262424;27;20064;-85
2022/12/21 10:03:56;;;;;;;14.35;13.45;;;8.40;99.90;;;;;;4249856;27;20034;-85
2022/12/21 10:06:42;;;;;;;9.13;8.40;;;8.50;99.90;;;;;;4255700;27;20250;-86
2022/12/21 10:09:19;;;;;;;11.48;10.90;;;8.50;99.90;;;;;;4261888;27;20072;-86
2022/12/21 10:11:53;;;;;;;9.80;9.40;;;8.40;99.90;;;;;;4243185;27;20069;-86
2022/12/21 10:14:43;;;;;;;11.07;10.55;;;8.40;99.90;;;;;;4290113;27;20370;-85
2022/12/21 10:17:08;;;;;;;13.85;12.85;;;8.40;99.90;;;;;;4270932;27;20072;-85
2022/12/21 10:20:29;;;;;;;12.18;11.15;;;8.50;99.90;;;;;;4270850;27;20253;-85
2022/12/21 10:22:53;;;;;;;14.32;13.02;;;8.40;99.90;;;;;;4283141;27;20124;-86
2022/12/21 10:25:23;;;;;;;12.90;12.18;;;8.50;99.90;;;;;;4277337;27;20057;-85
2022/12/21 10:27:56;;;;;;;11.10;10.48;;;8.50;99.90;;;;;;4265876;27;20080;-85
2022/12/21 10:30:17;;;;;;;13.45;12.43;;;8.50;99.90;;;;;;4279500;27;20076;-85
2022/12/21 10:32:39;;;;;;;13.85;13.10;;;8.40;99.90;;;;;;4259407;27;20263;-86
2022/12/21 10:35:21;;;;;;;12.25;11.60;;;8.40;99.90;;;;;;4247096;27;20132;-86
2022/12/21 10:37:41;;;;;;;15.32;14.20;;;8.40;99.90;;;;;;4260648;27;20077;-86
2022/12/21 10:40:01;;;;;;;13.07;12.45;;;8.50;99.90;;;;;;4258566;27;20050;-86
2022/12/21 10:42:49;;;;;;;13.20;12.15;;;8.30;99.90;;;;;;4260485;27;20053;-86
2022/12/21 10:45:18;;;;;;;11.50;10.98;;;8.40;99.90;;;;;;4261689;27;20050;-86
2022/12/21 10:47:45;;;;;;;11.82;11.23;;;8.40;99.90;;;;;;4251477;27;20358;-86
2022/12/21 10:50:13;;;;;;;11.25;10.68;;;8.40;99.90;;;;;;4258146;27;20055;-86
2022/12/21 10:52:37;;;;;;;10.88;10.55;;;8.40;99.90;;;;;;4260402;27;20042;-86
2022/12/21 10:54:57;;;;;;;10.43;10.02;;;8.40;99.90;;;;;;4257097;27;20308;-86
2022/12/21 10:57:17;;;;;;;11.60;10.90;;;8.40;99.90;;;;;;4249661;27;20046;-86
2022/12/21 10:59:43;;;;;;;11.68;11.13;;;8.40;99.90;;;;;;4244822;28;20102;-85
2022/12/21 11:02:35;;;;;;;16.15;13.93;;;8.50;99.90;;;;;;4261311;27;20046;-86
2022/12/21 11:04:55;;;;;;;11.68;10.88;;;8.60;99.90;;;;;;4281452;27;20042;-85
2022/12/21 11:07:28;;;;;;;11.40;10.80;;;8.50;99.90;;;;;;4250550;27;20073;-84
2022/12/21 11:10:24;;;;;;;11.32;10.63;;;8.60;99.90;;;;;;4260422;27;20045;-84
2022/12/21 11:13:05;;;;;;;9.85;9.55;;;8.60;99.90;;;;;;4258578;27;20053;-84
2022/12/21 11:15:25;;;;;;;10.90;10.50;;;8.50;99.90;;;;;;4244802;27;20085;-84
2022/12/21 11:18:24;;;;;;;13.00;12.02;;;8.60;99.90;;;;;;4255843;27;20050;-84
2022/12/21 11:20:48;;;;;;;11.65;11.05;;;8.60;99.90;;;;;;4261420;27;20050;-84
2022/12/21 11:23:08;;;;;;;11.73;11.23;;;8.60;99.90;;;;;;4258071;27;20391;-84
2022/12/21 11:25:31;;;;;;;13.18;12.10;;;8.60;99.90;;;;;;4243470;28;20043;-85
2022/12/21 11:28:02;;;;;;;12.27;11.65;;;8.70;99.90;;;;;;4252495;28;20072;-85
2022/12/21 11:30:27;;;;;;;12.25;11.50;;;8.60;99.90;;;;;;4245432;27;20089;-85
2022/12/21 11:32:49;;;;;;;12.65;11.88;;;8.70;99.90;;;;;;4250952;28;20050;-84
2022/12/21 11:35:27;;;;;;;12.60;11.80;;;8.70;99.90;;;;;;4243668;27;20061;-85
2022/12/21 11:37:52;;;;;;;12.98;11.98;;;8.70;99.90;;;;;;4241042;28;20069;-85
2022/12/21 11:40:18;;;;;;;12.43;11.63;;;8.80;99.90;;;;;;4243020;28;20072;-85
2022/12/21 11:43:00;;;;;;;12.95;12.32;;;8.80;99.90;;;;;;4250156;28;20111;-84
2022/12/21 11:45:47;;;;;;;13.15;12.27;;;8.80;99.90;;;;;;4230479;28;20078;-84
2022/12/21 11:48:25;;;;;;;12.80;12.00;;;8.80;99.90;;;;;;4234573;28;20352;-84
2022/12/21 11:50:54;;;;;;;12.88;11.60;;;8.80;99.90;;;;;;4248030;28;20055;-84
2022/12/21 11:53:36;;;;;;;11.00;10.32;;;8.90;99.90;;;;;;4244796;28;20082;-84
2022/12/21 11:56:15;;;;;;;11.63;10.80;;;8.90;99.90;;;;;;4245793;28;20054;-84
2022/12/21 11:58:53;;;;;;;10.63;10.20;;;9.00;99.90;;;;;;4246598;27;20065;-84
2022/12/21 12:01:45;;;;;;;11.85;11.13;;;9.00;99.90;;;;;;4246716;28;20078;-84
2022/12/21 12:04:23;;;;;;;11.60;10.98;;;9.10;99.90;;;;;;4234775;28;20088;-84
2022/12/21 12:07:01;;;;;;;12.07;11.48;;;9.00;99.90;;;;;;4243328;28;20046;-84
2022/12/21 12:09:46;;;;;;;;;;;9.10;99.90;;;;;;4235190;28;20111;-84
2022/12/21 12:12:50;;;;;;;11.55;10.82;;;9.10;99.90;;;;;;4248240;28;20126;-84
2022/12/21 12:15:12;;;;;;;;;;;9.20;99.90;;;;;;4189675;28;20475;-84
2022/12/21 12:17:54;;;;;;;11.95;11.02;;;9.20;99.90;;;;;;4231558;28;20126;-84
2022/12/21 12:20:49;;;;;;;11.60;10.63;;;9.20;99.90;;;;;;4247030;28;20243;-84
2022/12/21 12:23:33;;;;;;;8.35;7.90;;;9.30;99.90;;;;;;4239833;28;20235;-84
2022/12/21 12:26:29;;;;;;;7.35;6.97;;;9.40;99.90;;;;;;4248028;28;20049;-84
2022/12/21 12:28:54;;;;;;;8.98;8.70;;;9.40;99.90;;;;;;4246072;28;20050;-84
2022/12/21 12:31:20;;;;;;;9.05;8.70;;;9.30;99.90;;;;;;4250297;28;20298;-84
2022/12/21 12:34:31;;;;;;;7.15;6.95;;;9.40;99.90;;;;;;4251306;28;20042;-84
2022/12/21 12:37:01;;;;;;;7.70;7.10;;;9.30;99.90;;;;;;4156430;28;20057;-84
2022/12/21 12:39:41;;;;;;;7.70;7.45;;;9.40;99.90;;;;;;4156175;28;20052;-84
2022/12/21 12:42:11;;;;;;;10.00;9.35;;;9.30;99.90;;;;;;4156836;28;20441;-84